Misty Dawn — WDC8124 — position and weather

sailwx.info

Track history (hours):
 
Tides and Currents Weather Stations Pressure Air Temp Water Temp Dewpoint Dewpoint Depression Visibility Wind Speed Wind Dir Waves Ship Positions

Misty Dawn

Owner: Katahdin, Inc., Seattle, WA. More information available from US FCC via Universal Licensing System and Coast Guard Vessel Documentation Center.

Last reported at 2018-Jan-12 14:58 UTC. Time now 2018-Aug-18 14:13 UTC.
Position N 48°14' W 124°03'.
Warning: this ship's position is months out of date.

Length 22 m; draft 25.5 m.

MMSI: 367082010.

Date/timePositionNaut miles runAvg speedWind from/ knotsBaromVisibWave heightAir tempDewpointWater temp
2018-Jan-12 14:58N 48°14' W 124°03'1810.9
2018-Jan-12 13:18N 48°11' W 123°36'410.5
2018-Jan-12 12:58N 48°11' W 123°31'610.0
2018-Jan-12 12:23N 48°11' W 123°22'410.4
2018-Jan-12 12:00N 48°11' W 123°16'29 8.7
2018-Jan-12 08:40N 48°00' W 122°36'2 8.5
2018-Jan-12 08:28N 47°59' W 122°34'4 9.0
2018-Jan-12 08:00N 47°56' W 122°29'4 8.5
2018-Jan-12 07:31N 47°52' W 122°27'5 9.2
2018-Jan-12 07:00N 47°48' W 122°26'4 8.0
2018-Jan-12 06:30N 47°44' W 122°25'1 3.0
2018-Jan-12 06:00N 47°42' W 122°25'3 5.3
2018-Jan-12 05:30N 47°40' W 122°24'1 1.4
2018-Jan-12 05:00N 47°40' W 122°23'  
Track history (hours):
 
Tides and Currents Weather Stations Pressure Air Temp Water Temp Dewpoint Dewpoint Depression Visibility Wind Speed Wind Dir Waves Ship Positions

Misty Dawn

Owner: Katahdin, Inc., Seattle, WA. More information available from US FCC via Universal Licensing System and Coast Guard Vessel Documentation Center.

Last reported at 2018-Jan-12 14:58 UTC. Time now 2018-Aug-18 14:13 UTC.
Position N 48°14' W 124°03'.
Warning: this ship's position is months out of date.

Length 22 m; draft 25.5 m.

MMSI: 367082010.

Date/timePositionNaut miles runAvg speedWind from/ knotsBaromVisibWave heightAir tempDewpointWater temp
2018-Jan-12 14:58N 48°14' W 124°03'1810.9
2018-Jan-12 13:18N 48°11' W 123°36'410.5
2018-Jan-12 12:58N 48°11' W 123°31'610.0
2018-Jan-12 12:23N 48°11' W 123°22'410.4
2018-Jan-12 12:00N 48°11' W 123°16'29 8.7
2018-Jan-12 08:40N 48°00' W 122°36'2 8.5
2018-Jan-12 08:28N 47°59' W 122°34'4 9.0
2018-Jan-12 08:00N 47°56' W 122°29'4 8.5
2018-Jan-12 07:31N 47°52' W 122°27'5 9.2
2018-Jan-12 07:00N 47°48' W 122°26'4 8.0
2018-Jan-12 06:30N 47°44' W 122°25'1 3.0
2018-Jan-12 06:00N 47°42' W 122°25'3 5.3
2018-Jan-12 05:30N 47°40' W 122°24'1 1.4
2018-Jan-12 05:00N 47°40' W 122°23'  

Dump ship's entire track history